M I D A S
Marine Information and Data Acquisition System
Tripno 2138 of the Zeeleeuw from 2010-04-22 08:00:00 to 2010-04-22 17:00:00
Back to CruiseResearch ActivitiesStationsMapUnderway DataData graphs

EquipmentUnitsComment
TimeDGPSUTC
LatitudeDGPSDM.mWGS84
LongitudeDGPSDM.mWGS84
HeadingGyrodeg 
SOGDGPSknotsSpeed over ground
COGDGPSdegCourse over ground
DepthEcho soundermeters200 kHz
Missing or incorrect values are displayed as -999
Navigation data collected by the RV Zeeleeuw from 2010-04-22 08:00:00 to 2010-04-22 17:00:00
                                                                                    Next 1000 lines
Time Latitude Longitude Heading SOG COG Depth
2010-04-22 08:00:07 51°31.385 2°52.648 124.8 1.2 28 22.5
2010-04-22 08:00:12 51°31.386 2°52.649 126.7 0.5 29 23.5
2010-04-22 08:00:17 51°31.387 2°52.65 129.4 0.9 26 23.2
2010-04-22 08:00:22 51°31.388 2°52.651 132.5 0.8 28 23.1
2010-04-22 08:00:27 51°31.389 2°52.652 134.1 0.8 33 23.3
2010-04-22 08:00:32 51°31.389 2°52.653 136.5 0.7 37 23
2010-04-22 08:00:37 51°31.39 2°52.654 140.1 0.6 48 23.1
2010-04-22 08:00:42 51°31.39 2°52.655 143.3 0.4 63 22.8
2010-04-22 08:00:47 51°31.391 2°52.656 147.6 0.7 67 23
2010-04-22 08:00:52 51°31.391 2°52.657 150.7 0.4 81 23.5
2010-04-22 08:00:57 51°31.391 2°52.659 155.7 0.8 83 23.2
2010-04-22 08:01:02 51°31.391 2°52.66 160.5 0.4 99 23.5
2010-04-22 08:01:07 51°31.39 2°52.661 163.7 0.6 107 23.2
2010-04-22 08:01:12 51°31.39 2°52.663 167.4 0.8 98 22.8
2010-04-22 08:01:17 51°31.39 2°52.664 170.7 0.7 118 23.3
2010-04-22 08:01:22 51°31.389 2°52.665 172.8 0.7 118 22.8
2010-04-22 08:01:27 51°31.389 2°52.667 175 0.6 144 23.2
2010-04-22 08:01:32 51°31.388 2°52.668 177.6 0.9 113 22.9
2010-04-22 08:01:37 51°31.388 2°52.669 179.2 0.7 135 23.4
2010-04-22 08:01:42 51°31.387 2°52.671 180.4 0.8 127 23.1
2010-04-22 08:01:47 51°31.386 2°52.672 182 0.7 142 23.2
2010-04-22 08:01:52 51°31.386 2°52.673 183 0.9 133 23.1
2010-04-22 08:01:57 51°31.385 2°52.674 183.5 0.7 138 23.1
2010-04-22 08:02:02 51°31.384 2°52.676 184.2 0.8 131 23
2010-04-22 08:02:07 51°31.383 2°52.677 184.5 0.7 141 22.9
2010-04-22 08:02:12 51°31.382 2°52.678 185.2 0.8 136 22.9
2010-04-22 08:02:17 51°31.382 2°52.679 185.7 0.6 148 23.1
2010-04-22 08:02:22 51°31.381 2°52.68 186.3 0.8 126 23
2010-04-22 08:02:27 51°31.38 2°52.681 186.6 0.7 149 22.7
2010-04-22 08:02:32 51°31.379 2°52.683 186.8 0.7 138 22.7
2010-04-22 08:02:37 51°31.379 2°52.684 187.5 0.8 132 23
2010-04-22 08:02:42 51°31.378 2°52.685 187.9 0.6 137 22.8
2010-04-22 08:02:47 51°31.377 2°52.686 188.8 0.8 141 22.6
2010-04-22 08:02:52 51°31.376 2°52.686 190 0.6 142 22.8
2010-04-22 08:02:57 51°31.376 2°52.688 191.1 0.6 138 23
2010-04-22 08:03:02 51°31.375 2°52.688 192.4 0.6 138 22.8
2010-04-22 08:03:07 51°31.374 2°52.688 193.2 0.5 160 22.2
2010-04-22 08:03:12 51°31.374 2°52.689 194.9 0.6 155 22.7
2010-04-22 08:03:17 51°31.373 2°52.689 196.6 0.6 148 22.4
2010-04-22 08:03:22 51°31.372 2°52.69 198 0.4 190 22.4
2010-04-22 08:03:27 51°31.372 2°52.691 200.3 0.5 145 22.6
2010-04-22 08:03:32 51°31.371 2°52.691 201.2 0.3 167 22.5
2010-04-22 08:03:37 51°31.371 2°52.691 202.5 0.6 147 22.6
2010-04-22 08:03:42 51°31.37 2°52.691 203.5 0.3 204 22
2010-04-22 08:03:47 51°31.37 2°52.691 205.2 0.4 174 22.1
2010-04-22 08:03:52 51°31.369 2°52.691 206.7 0.3 188 22.2
2010-04-22 08:03:57 51°31.369 2°52.691 207.8 0.3 183 22.3
2010-04-22 08:04:02 51°31.368 2°52.691 209 0.3 171 22
2010-04-22 08:04:07 51°31.368 2°52.69 209.9 0.3 221 21.9
2010-04-22 08:04:12 51°31.368 2°52.691 211.3 0.4 158 22.8
2010-04-22 08:04:17 51°31.368 2°52.69 212.1 0.3 186 22
2010-04-22 08:04:22 51°31.367 2°52.691 212.7 0.2 251 22.7
2010-04-22 08:04:27 51°31.367 2°52.69 214.4 0.1 147 22.6
2010-04-22 08:04:32 51°31.367 2°52.691 214 0.1 252 22.6
2010-04-22 08:04:37 51°31.367 2°52.69 214.9 0.1 145 22.3
2010-04-22 08:04:42 51°31.366 2°52.691 215.7 0.1 155 22.6
2010-04-22 08:04:47 51°31.367 2°52.69 216.4 0.4 293 22.1
2010-04-22 08:04:52 51°31.366 2°52.691 217.3 0.3 137 22.5
2010-04-22 08:04:57 51°31.367 2°52.69 218 0.1 93 22.5
2010-04-22 08:05:02 51°31.366 2°52.69 218.3 -999 209 22.2
2010-04-22 08:05:07 51°31.366 2°52.689 219.1 0.3 299 22.1
2010-04-22 08:05:12 51°31.366 2°52.689 220.5 0.2 127 22.5
2010-04-22 08:05:17 51°31.367 2°52.689 220.7 0.3 301 22.3
2010-04-22 08:05:22 51°31.366 2°52.689 221.2 -999 27 22.3
2010-04-22 08:05:27 51°31.367 2°52.689 222.2 0.2 328 22.6
2010-04-22 08:05:32 51°31.367 2°52.689 222.6 0.1 17 22.3
2010-04-22 08:05:37 51°31.367 2°52.689 223 0.2 102 22.7
2010-04-22 08:05:42 51°31.367 2°52.688 223.2 0.2 333 22.1
2010-04-22 08:05:47 51°31.367 2°52.689 224 0.1 238 22.3
2010-04-22 08:05:52 51°31.367 2°52.688 225 0.2 331 22.3
2010-04-22 08:05:57 51°31.367 2°52.689 225.5 0.3 330 22.8
2010-04-22 08:06:02 51°31.368 2°52.688 226.3 0.1 74 22.8
2010-04-22 08:06:07 51°31.368 2°52.688 226.7 0.3 341 22.6
2010-04-22 08:06:12 51°31.368 2°52.688 227.2 0.1 352 22.7
2010-04-22 08:06:17 51°31.368 2°52.688 227.9 0.2 338 22.8
2010-04-22 08:06:22 51°31.369 2°52.688 228 0.2 2 22.8
2010-04-22 08:06:27 51°31.369 2°52.688 228.7 0.2 64 22.8
2010-04-22 08:06:32 51°31.369 2°52.687 229 0.1 53 22.6
2010-04-22 08:06:37 51°31.37 2°52.688 229.3 0.4 330 22.2
2010-04-22 08:06:42 51°31.37 2°52.687 230 0.4 348 22.4
2010-04-22 08:06:47 51°31.37 2°52.688 230.7 0.3 99 22.9
2010-04-22 08:06:52 51°31.371 2°52.687 230.8 0.4 349 22.5
2010-04-22 08:06:57 51°31.371 2°52.688 231 0.2 84 22.7
2010-04-22 08:07:02 51°31.371 2°52.687 231 0.5 341 22.1
2010-04-22 08:07:07 51°31.371 2°52.688 231.4 0.2 79 22.7
2010-04-22 08:07:12 51°31.372 2°52.688 232 0.5 339 22.5
2010-04-22 08:07:17 51°31.372 2°52.688 232 0.2 54 22.3
2010-04-22 08:07:22 51°31.373 2°52.688 231.8 0.4 357 22.2
2010-04-22 08:07:27 51°31.373 2°52.688 232.3 0.2 31 22.6
2010-04-22 08:07:32 51°31.373 2°52.688 232.1 0.3 13 22.6
2010-04-22 08:07:37 51°31.374 2°52.688 231.8 0.3 357 22.7
2010-04-22 08:07:42 51°31.374 2°52.688 232.2 0.3 11 22.9
2010-04-22 08:07:47 51°31.375 2°52.688 232.3 0.3 23 23
2010-04-22 08:07:52 51°31.375 2°52.689 232.5 0.4 7 22.8
2010-04-22 08:07:57 51°31.375 2°52.689 232.6 0.2 95 23.4
2010-04-22 08:08:02 51°31.376 2°52.689 232.7 0.6 343 22.4
2010-04-22 08:08:07 51°31.376 2°52.689 232.5 0.2 50 22.9
2010-04-22 08:08:12 51°31.377 2°52.689 233 0.4 354 22.9
2010-04-22 08:08:17 51°31.377 2°52.689 232.9 0.2 41 23
2010-04-22 08:08:22 51°31.377 2°52.689 232.6 0.4 357 23
2010-04-22 08:08:27 51°31.378 2°52.689 233.1 0.1 34 23.2
2010-04-22 08:08:32 51°31.378 2°52.688 233.1 0.5 334 22.5
2010-04-22 08:08:37 51°31.378 2°52.689 233.4 -999 145 23.3
2010-04-22 08:08:42 51°31.379 2°52.688 234.1 0.5 328 22.8
2010-04-22 08:08:47 51°31.379 2°52.688 234 0.3 326 22.8
2010-04-22 08:08:52 51°31.379 2°52.687 234.2 0.3 313 23.2
2010-04-22 08:08:57 51°31.379 2°52.686 234.5 0.3 309 22.7
2010-04-22 08:09:02 51°31.379 2°52.686 234.6 0.3 315 22.8
2010-04-22 08:09:07 51°31.379 2°52.685 235.2 0.3 283 22.9
2010-04-22 08:09:12 51°31.379 2°52.685 234.3 0.8 311 22.3
2010-04-22 08:09:17 51°31.379 2°52.685 234.5 0.5 169 23.6
2010-04-22 08:09:22 51°31.38 2°52.684 234.1 0.7 312 22.6
2010-04-22 08:09:27 51°31.379 2°52.684 233.5 0.2 206 23.2
2010-04-22 08:09:32 51°31.38 2°52.683 233.5 0.4 304 23
2010-04-22 08:09:37 51°31.38 2°52.682 233.3 0.2 215 23
2010-04-22 08:09:42 51°31.38 2°52.682 233.1 0.4 287 22.7
2010-04-22 08:09:47 51°31.38 2°52.681 233 0.3 251 23
2010-04-22 08:09:52 51°31.38 2°52.68 233.4 0.3 274 22.9
2010-04-22 08:09:57 51°31.38 2°52.68 232.9 0.4 278 22.8
2010-04-22 08:10:02 51°31.38 2°52.679 232.9 0.3 290 23.1
2010-04-22 08:10:07 51°31.38 2°52.679 233.1 0.2 266 23.2
2010-04-22 08:10:12 51°31.38 2°52.678 232.7 0.3 300 22.7
2010-04-22 08:10:17 51°31.38 2°52.678 232.5 0.1 245 23.2
2010-04-22 08:10:22 51°31.38 2°52.677 232.4 0.2 279 22.8
2010-04-22 08:10:27 51°31.38 2°52.676 232.2 0.5 307 22.4
2010-04-22 08:10:32 51°31.38 2°52.676 232.6 0.2 186 23.2
2010-04-22 08:10:37 51°31.381 2°52.675 232.5 0.4 303 22.7
2010-04-22 08:10:42 51°31.38 2°52.675 232.3 0.3 272 22.8
2010-04-22 08:10:47 51°31.381 2°52.674 232.3 0.3 304 22.9
2010-04-22 08:10:52 51°31.38 2°52.674 232.3 0.4 169 23
2010-04-22 08:10:57 51°31.381 2°52.673 231.8 0.7 308 22.3
2010-04-22 08:11:02 51°31.38 2°52.674 232.2 0.2 185 23.2
2010-04-22 08:11:07 51°31.381 2°52.673 232.4 0.5 314 22.9
2010-04-22 08:11:12 51°31.381 2°52.673 231.8 0.2 161 22.8
2010-04-22 08:11:17 51°31.381 2°52.672 231.6 0.6 308 22.5
2010-04-22 08:11:22 51°31.381 2°52.672 231.5 0.1 207 23
2010-04-22 08:11:27 51°31.381 2°52.672 231.7 0.1 317 23.3
2010-04-22 08:11:32 51°31.381 2°52.671 231.4 0.3 151 23.4
2010-04-22 08:11:37 51°31.381 2°52.671 230.9 0.6 317 22.8
2010-04-22 08:11:42 51°31.381 2°52.671 231 0.2 144 23.5
2010-04-22 08:11:47 51°31.382 2°52.67 231 0.4 310 22.7
2010-04-22 08:11:52 51°31.381 2°52.67 230.3 0.1 215 23
2010-04-22 08:11:57 51°31.382 2°52.67 230.9 0.1 237 23.2
2010-04-22 08:12:02 51°31.381 2°52.67 230.2 0.3 290 23
2010-04-22 08:12:07 51°31.382 2°52.67 230.3 0.2 312 23.2
2010-04-22 08:12:12 51°31.382 2°52.67 229.9 0.1 282 23
2010-04-22 08:12:17 51°31.382 2°52.669 229.9 0.1 118 23.3
2010-04-22 08:12:22 51°31.382 2°52.669 229.5 0.1 310 22.9
2010-04-22 08:12:27 51°31.382 2°52.669 229.4 0.1 349 22.9
2010-04-22 08:12:32 51°31.382 2°52.669 229.2 0.1 135 23.3
2010-04-22 08:12:37 51°31.382 2°52.669 229.2 0.3 297 22.7
2010-04-22 08:12:42 51°31.382 2°52.669 229.2 0.2 280 23.3
2010-04-22 08:12:47 51°31.382 2°52.669 229.9 -999 17 23.4
2010-04-22 08:12:52 51°31.382 2°52.668 229.2 0.1 358 22.8
2010-04-22 08:12:57 51°31.382 2°52.669 228.7 0.1 336 23
2010-04-22 08:13:02 51°31.382 2°52.668 228.8 0.1 152 23
2010-04-22 08:13:07 51°31.382 2°52.668 228.7 0.2 319 22.9
2010-04-22 08:13:12 51°31.382 2°52.668 228.9 -999 107 23.1
2010-04-22 08:13:17 51°31.383 2°52.668 228.7 0.3 331 22.9
2010-04-22 08:13:22 51°31.383 2°52.668 228.7 0.3 131 23.1
2010-04-22 08:13:27 51°31.383 2°52.668 228.2 0.4 313 22.6
2010-04-22 08:13:32 51°31.383 2°52.668 228.2 0.1 278 22.8
2010-04-22 08:13:37 51°31.383 2°52.668 228.3 0.1 333 23.2
2010-04-22 08:13:42 51°31.383 2°52.668 227.8 -999 91 22.9
2010-04-22 08:13:47 51°31.383 2°52.668 227.2 -999 7 22.9
2010-04-22 08:13:52 51°31.383 2°52.668 226.8 0.1 125 23.1
2010-04-22 08:13:57 51°31.383 2°52.668 226.5 0.1 345 22.8
2010-04-22 08:14:02 51°31.383 2°52.668 225.7 -999 56 23.2
2010-04-22 08:14:07 51°31.383 2°52.668 225.5 -999 351 23
2010-04-22 08:14:12 51°31.383 2°52.668 224.7 0.1 287 22.7
2010-04-22 08:14:17 51°31.383 2°52.669 224.1 -999 148 22.9
2010-04-22 08:14:22 51°31.383 2°52.669 223.9 0.1 118 23.2
2010-04-22 08:14:27 51°31.383 2°52.669 223 0.2 316 22.7
2010-04-22 08:14:32 51°31.383 2°52.669 222.7 0.2 125 23
2010-04-22 08:14:37 51°31.383 2°52.669 222.5 0.1 175 23.2
2010-04-22 08:14:42 51°31.383 2°52.67 222.2 -999 216 23.3
2010-04-22 08:14:47 51°31.383 2°52.669 222.1 0.1 277 23.1
2010-04-22 08:14:52 51°31.383 2°52.669 221.6 0.2 160 23
2010-04-22 08:14:57 51°31.383 2°52.669 221.6 0.1 205 22.8
2010-04-22 08:15:02 51°31.383 2°52.669 221.5 0.2 225 22.9
2010-04-22 08:15:07 51°31.383 2°52.669 221.4 0.1 225 22.9
2010-04-22 08:15:12 51°31.382 2°52.669 222 0.3 153 23.3
2010-04-22 08:15:17 51°31.382 2°52.669 221.2 0.1 289 22.8
2010-04-22 08:15:22 51°31.382 2°52.669 221.3 0.1 197 23.2
2010-04-22 08:15:27 51°31.382 2°52.669 221.8 0.1 208 23.1
2010-04-22 08:15:32 51°31.382 2°52.669 221.7 0.1 147 23
2010-04-22 08:15:37 51°31.382 2°52.669 221.8 0.2 134 23.2
2010-04-22 08:15:42 51°31.382 2°52.669 221.7 -999 205 22.6
2010-04-22 08:15:47 51°31.381 2°52.669 221.7 0.1 169 22.8
2010-04-22 08:15:52 51°31.381 2°52.669 221.7 0.1 280 22.7
2010-04-22 08:15:57 51°31.381 2°52.669 221.7 0.1 126 22.9
2010-04-22 08:16:02 51°31.381 2°52.669 221.5 -999 246 22.8
2010-04-22 08:16:07 51°31.381 2°52.669 221.2 0.2 156 22.8
2010-04-22 08:16:12 51°31.381 2°52.669 221.4 0.1 285 23
2010-04-22 08:16:17 51°31.381 2°52.67 221.6 -999 156 22.9
2010-04-22 08:16:22 51°31.381 2°52.67 221.5 0.1 113 23.1
2010-04-22 08:16:27 51°31.381 2°52.67 221.5 -999 57 22.9
2010-04-22 08:16:32 51°31.381 2°52.67 221.5 -999 95 23
2010-04-22 08:16:37 51°31.381 2°52.67 221.6 0.1 141 22.9
2010-04-22 08:16:42 51°31.381 2°52.67 221.9 0.1 299 22.8
2010-04-22 08:16:47 51°31.381 2°52.67 221.9 0.1 133 23.2
2010-04-22 08:16:52 51°31.381 2°52.67 222.1 0.1 345 22.8
2010-04-22 08:16:57 51°31.381 2°52.67 221.8 0.2 160 22.9
2010-04-22 08:17:02 51°31.381 2°52.67 222.1 0.3 313 22.8
2010-04-22 08:17:07 51°31.381 2°52.671 222.4 0.5 128 23.7
2010-04-22 08:17:12 51°31.381 2°52.67 222.2 0.4 326 22.7
2010-04-22 08:17:17 51°31.381 2°52.671 222.1 0.3 128 23.3
2010-04-22 08:17:22 51°31.381 2°52.669 222.7 0.2 336 22.6
2010-04-22 08:17:27 51°31.381 2°52.67 222.9 0.2 129 23
2010-04-22 08:17:32 51°31.381 2°52.67 223.2 0.3 325 23.1
2010-04-22 08:17:37 51°31.381 2°52.67 223.4 0.3 133 23.1
2010-04-22 08:17:42 51°31.381 2°52.67 223.1 0.5 321 22.7
2010-04-22 08:17:47 51°31.381 2°52.67 223.6 0.2 114 23
2010-04-22 08:17:52 51°31.382 2°52.67 223.6 0.4 325 22.8
2010-04-22 08:17:57 51°31.382 2°52.67 223.8 0.2 117 23
2010-04-22 08:18:02 51°31.382 2°52.67 223.7 0.3 331 22.7
2010-04-22 08:18:07 51°31.382 2°52.67 224.2 0.2 116 23.2
2010-04-22 08:18:12 51°31.382 2°52.67 224.3 0.2 103 22.9
2010-04-22 08:18:17 51°31.383 2°52.67 223.7 0.4 321 22.6
2010-04-22 08:18:22 51°31.382 2°52.67 224.6 0.2 97 22.9
2010-04-22 08:18:27 51°31.383 2°52.67 224 0.1 326 23
2010-04-22 08:18:32 51°31.383 2°52.67 223.1 0.1 66 22.8
2010-04-22 08:18:37 51°31.383 2°52.67 223 0.1 98 23.1
2010-04-22 08:18:42 51°31.383 2°52.671 222.5 0.2 352 22.7
2010-04-22 08:18:47 51°31.383 2°52.671 222.4 0.3 127 23.3
2010-04-22 08:18:52 51°31.383 2°52.671 222 0.4 331 22.5
2010-04-22 08:18:57 51°31.383 2°52.672 221.9 0.2 123 23.5
2010-04-22 08:19:02 51°31.383 2°52.671 221.6 0.2 357 22.7
2010-04-22 08:19:07 51°31.383 2°52.672 221 0.3 127 22.7
2010-04-22 08:19:12 51°31.383 2°52.671 221.2 0.2 325 22.7
2010-04-22 08:19:17 51°31.383 2°52.672 220.9 0.1 137 22.9
2010-04-22 08:19:22 51°31.383 2°52.672 220.9 0.1 137 22.9
2010-04-22 08:19:27 51°31.383 2°52.672 220.7 0.1 120 23.2
2010-04-22 08:19:32 51°31.383 2°52.672 221 -999 341 22.6
2010-04-22 08:19:37 51°31.383 2°52.672 220.7 -999 109 23.1
2010-04-22 08:19:42 51°31.383 2°52.672 221 0.3 122 22.6
2010-04-22 08:19:47 51°31.383 2°52.672 220.7 0.2 149 23.1
2010-04-22 08:19:52 51°31.383 2°52.672 221.3 0.3 135 22.8
2010-04-22 08:19:57 51°31.383 2°52.672 221.3 0.2 281 22.8
2010-04-22 08:20:02 51°31.383 2°52.672 222.2 0.1 160 23.1
2010-04-22 08:20:07 51°31.382 2°52.672 222.2 0.1 134 22.9
2010-04-22 08:20:12 51°31.382 2°52.672 222.3 0.1 158 22.9
2010-04-22 08:20:17 51°31.383 2°52.672 222.2 0.2 210 22.7
2010-04-22 08:20:22 51°31.382 2°52.672 222.7 0.3 292 22.8
2010-04-22 08:20:27 51°31.382 2°52.673 223.5 0.3 130 23.3
2010-04-22 08:20:32 51°31.382 2°52.672 222.5 0.1 313 22.9
2010-04-22 08:20:37 51°31.383 2°52.672 222.4 0.1 158 22.8
2010-04-22 08:20:42 51°31.382 2°52.672 222.3 0.3 290 22.8
2010-04-22 08:20:47 51°31.382 2°52.672 222.3 0.1 155 23
2010-04-22 08:20:52 51°31.382 2°52.672 221.7 0.1 248 22.7
2010-04-22 08:20:57 51°31.382 2°52.672 221.5 0.1 288 22.3
2010-04-22 08:21:02 51°31.382 2°52.672 220.9 0.1 186 22.9
2010-04-22 08:21:07 51°31.382 2°52.672 220.8 0.1 323 22.9
2010-04-22 08:21:12 51°31.382 2°52.672 220.8 0.2 130 23.3
2010-04-22 08:21:17 51°31.382 2°52.671 220.7 0.2 306 22.8
2010-04-22 08:21:22 51°31.382 2°52.672 220.6 -999 126 23.1
2010-04-22 08:21:27 51°31.382 2°52.671 221 -999 255 23
2010-04-22 08:21:32 51°31.382 2°52.671 220.5 0.2 316 22.6
2010-04-22 08:21:37 51°31.381 2°52.671 221 0.2 142 23
2010-04-22 08:21:42 51°31.381 2°52.671 220.7 0.2 309 22.7
2010-04-22 08:21:47 51°31.381 2°52.671 220.7 0.2 145 23.1
2010-04-22 08:21:52 51°31.382 2°52.671 220.5 0.4 308 22.6
2010-04-22 08:21:57 51°31.381 2°52.672 220.6 0.1 213 23.2
2010-04-22 08:22:02 51°31.382 2°52.671 220.6 0.1 52 22.9
2010-04-22 08:22:07 51°31.381 2°52.671 219.9 0.2 130 22.9
2010-04-22 08:22:12 51°31.382 2°52.671 219.5 0.1 12 22.8
2010-04-22 08:22:17 51°31.381 2°52.671 219.3 0.1 113 22.9
2010-04-22 08:22:22 51°31.382 2°52.671 219 0.1 309 22.6
2010-04-22 08:22:27 51°31.381 2°52.672 218.9 0.2 129 23.2
2010-04-22 08:22:32 51°31.382 2°52.671 218.9 0.1 59 23.1
2010-04-22 08:22:37 51°31.381 2°52.671 218.6 0.1 131 22.8
2010-04-22 08:22:42 51°31.382 2°52.671 218.5 0.3 305 22.7
2010-04-22 08:22:47 51°31.381 2°52.672 218.6 0.3 114 23.5
2010-04-22 08:22:52 51°31.382 2°52.671 218.3 0.1 337 22.8
2010-04-22 08:22:57 51°31.381 2°52.672 217.8 0.2 77 22.9
2010-04-22 08:23:02 51°31.382 2°52.672 217.8 0.1 85 22.9
2010-04-22 08:23:07 51°31.382 2°52.672 217.1 0.1 293 22.5
2010-04-22 08:23:12 51°31.381 2°52.672 217.1 0.2 153 23
2010-04-22 08:23:17 51°31.381 2°52.672 217.1 0.1 137 22.5
2010-04-22 08:23:22 51°31.381 2°52.672 216.9 0.1 181 22.8
2010-04-22 08:23:27 51°31.381 2°52.672 216.9 0.1 243 22.4
2010-04-22 08:23:32 51°31.381 2°52.673 217 0.3 132 23.3
2010-04-22 08:23:37 51°31.381 2°52.672 217.1 0.1 144 23
2010-04-22 08:23:42 51°31.381 2°52.673 216.8 -999 109 22.7
2010-04-22 08:23:47 51°31.381 2°52.672 216.8 0.1 277 22.9
2010-04-22 08:23:52 51°31.381 2°52.673 217 0.1 136 22.7
2010-04-22 08:23:57 51°31.381 2°52.672 217.1 -999 235 22.9
2010-04-22 08:24:02 51°31.381 2°52.673 217.3 -999 285 22.8
2010-04-22 08:24:07 51°31.381 2°52.673 217 0.1 304 22.9
2010-04-22 08:24:12 51°31.381 2°52.673 217.1 0.2 118 22.7
2010-04-22 08:24:17 51°31.381 2°52.673 217.1 0.1 310 23
2010-04-22 08:24:22 51°31.381 2°52.673 217.1 0.2 130 22.7
2010-04-22 08:24:27 51°31.381 2°52.673 217.1 0.1 326 22.9
2010-04-22 08:24:32 51°31.381 2°52.673 217.5 0.3 99 23
2010-04-22 08:24:37 51°31.381 2°52.673 217 0.1 142 22.6
2010-04-22 08:24:42 51°31.382 2°52.672 216.8 0.1 298 22.1
2010-04-22 08:24:47 51°31.381 2°52.673 217.4 0.2 128 23.3
2010-04-22 08:24:52 51°31.382 2°52.673 217.3 0.2 349 22.6
2010-04-22 08:24:57 51°31.381 2°52.674 217.1 0.1 106 22.9
2010-04-22 08:25:02 51°31.382 2°52.673 216.9 0.1 11 22.8
2010-04-22 08:25:07 51°31.381 2°52.673 216.8 0.1 130 22.4
2010-04-22 08:25:12 51°31.382 2°52.673 216.9 0.1 331 22.8
2010-04-22 08:25:17 51°31.382 2°52.674 216.6 0.3 118 22.9
2010-04-22 08:25:22 51°31.382 2°52.673 216.3 0.1 303 22.6
2010-04-22 08:25:27 51°31.382 2°52.674 216.1 0.1 118 22.7
2010-04-22 08:25:32 51°31.382 2°52.674 216.1 0.1 20 22.8
2010-04-22 08:25:37 51°31.381 2°52.674 216.1 0.3 107 22.8
2010-04-22 08:25:42 51°31.381 2°52.674 215.6 0.1 20 22.5
2010-04-22 08:25:47 51°31.381 2°52.674 215.6 0.1 140 22.9
2010-04-22 08:25:52 51°31.381 2°52.674 215.6 0.2 298 22.1
2010-04-22 08:25:57 51°31.381 2°52.674 215.5 -999 26 22.7
2010-04-22 08:26:02 51°31.381 2°52.674 216.2 0.2 119 22.8
2010-04-22 08:26:07 51°31.381 2°52.674 215.1 0.2 327 22.5
2010-04-22 08:26:12 51°31.381 2°52.675 215.6 0.2 121 22.8
2010-04-22 08:26:17 51°31.382 2°52.674 214.9 0.2 314 22.2
2010-04-22 08:26:22 51°31.381 2°52.675 214.9 0.1 132 22.8
2010-04-22 08:26:27 51°31.381 2°52.675 214.9 0.1 352 22.8
2010-04-22 08:26:32 51°31.382 2°52.675 214.7 0.1 63 22.5
2010-04-22 08:26:37 51°31.382 2°52.675 214.8 0.1 25 22.4
2010-04-22 08:26:42 51°31.382 2°52.675 214.9 0.1 66 22.8
2010-04-22 08:26:47 51°31.382 2°52.675 214.9 0.1 99 22.7
2010-04-22 08:26:52 51°31.382 2°52.675 214.4 0.2 323 22.5
2010-04-22 08:26:57 51°31.382 2°52.676 214.9 0.4 119 23
2010-04-22 08:27:02 51°31.382 2°52.675 214.5 0.1 270 22.2
2010-04-22 08:27:07 51°31.382 2°52.676 214.4 0.4 123 22.8
2010-04-22 08:27:12 51°31.382 2°52.676 215.1 0.2 95 23.2
2010-04-22 08:27:17 51°31.382 2°52.676 214.1 0.1 40 22.6
2010-04-22 08:27:22 51°31.382 2°52.676 214.2 -999 145 22.7
2010-04-22 08:27:27 51°31.382 2°52.676 214.2 -999 131 22.8
2010-04-22 08:27:32 51°31.382 2°52.676 214.2 0.1 110 22.8
2010-04-22 08:27:37 51°31.382 2°52.676 214.2 0.2 313 22.7
2010-04-22 08:27:42 51°31.381 2°52.677 214.3 0.4 123 23.3
2010-04-22 08:27:47 51°31.382 2°52.676 214.3 0.4 293 22.4
2010-04-22 08:27:52 51°31.381 2°52.677 214.4 0.2 147 22.6
2010-04-22 08:27:57 51°31.382 2°52.676 215.1 0.1 326 23
2010-04-22 08:28:02 51°31.382 2°52.677 215.1 0.2 119 22.9
2010-04-22 08:28:07 51°31.382 2°52.676 214.9 0.2 310 22.6
2010-04-22 08:28:12 51°31.381 2°52.677 215 0.2 137 22.8
2010-04-22 08:28:17 51°31.382 2°52.676 214.9 0.2 283 22.6
2010-04-22 08:28:22 51°31.381 2°52.677 214.9 0.1 150 22.9
2010-04-22 08:28:27 51°31.382 2°52.676 215 0.1 296 22.6
2010-04-22 08:28:32 51°31.381 2°52.677 214.6 0.1 148 22.8
2010-04-22 08:28:37 51°31.381 2°52.677 214.8 -999 108 22.7
2010-04-22 08:28:42 51°31.381 2°52.677 214.4 0.1 109 22.8
2010-04-22 08:28:47 51°31.381 2°52.677 214.1 0.1 277 22.7
2010-04-22 08:28:52 51°31.381 2°52.677 214.2 0.1 142 22.6
2010-04-22 08:28:57 51°31.381 2°52.677 213.7 0.1 263 22.8
2010-04-22 08:29:02 51°31.381 2°52.677 213.6 0.1 108 23.1
2010-04-22 08:29:07 51°31.381 2°52.677 213.7 0.1 181 22.6
2010-04-22 08:29:12 51°31.381 2°52.677 213 0.2 274 22
2010-04-22 08:29:17 51°31.38 2°52.678 213 0.1 157 23.1
2010-04-22 08:29:22 51°31.381 2°52.677 213.5 0.3 115 22.6
2010-04-22 08:29:27 51°31.38 2°52.677 211.9 0.2 154 22.3
2010-04-22 08:29:32 51°31.38 2°52.677 212 0.1 177 22.5
2010-04-22 08:29:37 51°31.38 2°52.678 212 0.2 131 22.4
2010-04-22 08:29:42 51°31.38 2°52.678 211.4 0.1 292 22.7
2010-04-22 08:29:47 51°31.38 2°52.678 211.3 0.2 129 22.6
2010-04-22 08:29:52 51°31.38 2°52.678 210.8 0.1 302 22.6
2010-04-22 08:29:57 51°31.38 2°52.678 210.9 0.2 129 22.9
2010-04-22 08:30:02 51°31.38 2°52.678 210.7 0.1 131 22.4
2010-04-22 08:30:07 51°31.38 2°52.678 210.2 0.1 198 22.3
2010-04-22 08:30:12 51°31.379 2°52.679 209.9 0.2 134 22.8
2010-04-22 08:30:17 51°31.379 2°52.679 210.1 0.2 117 22.7
2010-04-22 08:30:22 51°31.379 2°52.679 209.5 0.1 144 22.3
2010-04-22 08:30:27 51°31.379 2°52.678 209.1 0.1 265 22.5
2010-04-22 08:30:32 51°31.379 2°52.679 209.1 0.2 178 22.4
2010-04-22 08:30:37 51°31.379 2°52.679 208.7 0.1 178 22.7
2010-04-22 08:30:42 51°31.379 2°52.679 208.7 0.2 160 22.4
2010-04-22 08:30:47 51°31.379 2°52.679 208.3 0.2 139 22.5
2010-04-22 08:30:52 51°31.379 2°52.679 208.6 0.1 167 22.5
2010-04-22 08:30:57 51°31.378 2°52.679 208.1 0.2 277 21.9
2010-04-22 08:31:02 51°31.378 2°52.68 208.6 0.4 135 22.9
2010-04-22 08:31:07 51°31.378 2°52.679 208.4 0.2 283 22.3
2010-04-22 08:31:12 51°31.378 2°52.68 208.3 0.2 133 22.5
2010-04-22 08:31:17 51°31.378 2°52.679 208.4 0.1 149 22.2
2010-04-22 08:31:22 51°31.378 2°52.68 208.1 0.1 178 22.2
2010-04-22 08:31:27 51°31.378 2°52.68 208.5 -999 69 22.5
2010-04-22 08:31:32 51°31.377 2°52.68 208.3 0.2 93 22.4
2010-04-22 08:31:37 51°31.377 2°52.68 207.9 0.1 145 22.3
2010-04-22 08:31:42 51°31.377 2°52.68 207.9 0.1 246 22.1
2010-04-22 08:31:47 51°31.377 2°52.68 208.7 0.2 132 22.7
2010-04-22 08:31:52 51°31.377 2°52.68 208.7 -999 133 22.3
2010-04-22 08:31:57 51°31.377 2°52.68 208.5 0.1 149 22.2
2010-04-22 08:32:02 51°31.377 2°52.68 208.4 0.1 232 22.1
2010-04-22 08:32:07 51°31.377 2°52.681 208.8 0.1 141 22.3
2010-04-22 08:32:12 51°31.377 2°52.681 209.1 0.1 131 22.5
2010-04-22 08:32:17 51°31.377 2°52.681 209.1 0.1 127 22.4
2010-04-22 08:32:22 51°31.376 2°52.681 209.4 0.1 149 22.4
2010-04-22 08:32:27 51°31.376 2°52.68 209.5 0.1 247 21.9
2010-04-22 08:32:32 51°31.376 2°52.681 209.8 0.2 121 22.5
2010-04-22 08:32:37 51°31.376 2°52.681 210.2 0.4 120 22.6
2010-04-22 08:32:42 51°31.376 2°52.681 210 0.2 314 21.9
2010-04-22 08:32:47 51°31.376 2°52.681 210.6 0.3 134 22.4
2010-04-22 08:32:52 51°31.376 2°52.681 210.8 0.2 282 22
2010-04-22 08:32:57 51°31.375 2°52.681 211.3 0.3 134 22.2
2010-04-22 08:33:02 51°31.376 2°52.68 211.8 0.2 284 22.1
2010-04-22 08:33:07 51°31.375 2°52.681 212.4 0.1 141 22.2
2010-04-22 08:33:12 51°31.375 2°52.681 213.4 0.1 226 22.3
2010-04-22 08:33:17 51°31.376 2°52.68 213.5 0.1 180 21.8
2010-04-22 08:33:22 51°31.375 2°52.681 214.1 0.3 289 22.7
2010-04-22 08:33:27 51°31.376 2°52.68 215.4 -999 65 22.3
2010-04-22 08:33:32 51°31.375 2°52.68 215.2 0.1 298 21.9
2010-04-22 08:33:37 51°31.376 2°52.68 216 -999 113 22.4
2010-04-22 08:33:42 51°31.376 2°52.68 216.4 0.2 296 22.3
2010-04-22 08:33:47 51°31.376 2°52.681 216.8 0.1 58 22.6
2010-04-22 08:33:52 51°31.376 2°52.681 217.2 0.3 103 22.8
2010-04-22 08:33:57 51°31.376 2°52.68 217.2 0.2 335 22.3
2010-04-22 08:34:02 51°31.376 2°52.68 217.8 0.1 15 22.3
2010-04-22 08:34:07 51°31.376 2°52.68 218.3 0.1 5 22.3
2010-04-22 08:34:12 51°31.376 2°52.68 218.4 0.2 312 22
2010-04-22 08:34:17 51°31.376 2°52.68 218.9 0.2 331 22.2
2010-04-22 08:34:22 51°31.377 2°52.68 219.1 0.1 97 22.3
2010-04-22 08:34:27 51°31.377 2°52.68 219.3 0.2 334 22.2
2010-04-22 08:34:32 51°31.377 2°52.68 219.5 0.1 348 22.3
2010-04-22 08:34:37 51°31.377 2°52.68 219.7 0.3 329 22.2
2010-04-22 08:34:42 51°31.377 2°52.68 220 0.1 100 22.7
2010-04-22 08:34:47 51°31.378 2°52.68 220.6 0.4 334 22
2010-04-22 08:34:52 51°31.377 2°52.68 220.6 0.2 97 22.6
2010-04-22 08:34:57 51°31.378 2°52.679 221.1 0.1 54 21.9
2010-04-22 08:35:02 51°31.378 2°52.68 220.9 0.4 322 22.3
2010-04-22 08:35:07 51°31.378 2°52.681 221.4 0.3 96 23
2010-04-22 08:35:12 51°31.378 2°52.68 220.8 0.4 318 22.3
2010-04-22 08:35:17 51°31.378 2°52.68 221 0.1 9 22.2
2010-04-22 08:35:22 51°31.379 2°52.68 222 0.1 8 22.7
2010-04-22 08:35:27 51°31.379 2°52.68 222.2 0.2 346 22.3
2010-04-22 08:35:32 51°31.379 2°52.68 222.2 0.2 -999 22.4
2010-04-22 08:35:37 51°31.379 2°52.68 222.7 0.3 348 22.6
2010-04-22 08:35:42 51°31.38 2°52.679 222.9 0.1 89 22.3
2010-04-22 08:35:47 51°31.38 2°52.679 223 0.3 334 22.6
2010-04-22 08:35:52 51°31.38 2°52.68 223.8 0.3 108 22.7
2010-04-22 08:35:57 51°31.38 2°52.679 223.4 0.5 322 22.1
2010-04-22 08:36:02 51°31.38 2°52.68 223.6 0.1 347 22.9
2010-04-22 08:36:07 51°31.381 2°52.679 224 0.2 -999 22.8
2010-04-22 08:36:12 51°31.381 2°52.679 223.5 0.2 354 22.7
2010-04-22 08:36:17 51°31.381 2°52.679 223.7 0.1 26 22.6
2010-04-22 08:36:22 51°31.381 2°52.679 223.6 0.2 334 22.6
2010-04-22 08:36:27 51°31.381 2°52.679 223.7 0.2 327 22.5
2010-04-22 08:36:32 51°31.382 2°52.679 223.9 0.1 340 22.8
2010-04-22 08:36:37 51°31.382 2°52.679 223.9 0.2 334 22.9
2010-04-22 08:36:42 51°31.382 2°52.679 223.9 0.1 150 22.7
2010-04-22 08:36:47 51°31.382 2°52.678 223.4 0.5 318 22.5
2010-04-22 08:36:52 51°31.382 2°52.679 224.2 0.3 127 23.1
2010-04-22 08:36:57 51°31.383 2°52.677 223.6 0.3 311 22.5
2010-04-22 08:37:02 51°31.382 2°52.678 223.1 0.1 277 22.8
2010-04-22 08:37:07 51°31.383 2°52.677 223.6 0.2 310 22.7
2010-04-22 08:37:12 51°31.382 2°52.677 223 0.1 251 22.4
2010-04-22 08:37:17 51°31.383 2°52.677 223.3 0.1 275 22.7
2010-04-22 08:37:22 51°31.383 2°52.677 222.9 0.1 272 22.9
2010-04-22 08:37:27 51°31.383 2°52.677 222.8 0.1 284 22.9
2010-04-22 08:37:32 51°31.383 2°52.677 222.3 -999 254 22.8
2010-04-22 08:37:37 51°31.383 2°52.676 222.1 0.1 309 22.8
2010-04-22 08:37:42 51°31.382 2°52.676 221.7 0.1 227 22.5
2010-04-22 08:37:47 51°31.383 2°52.675 221.5 0.3 282 22.4
2010-04-22 08:37:52 51°31.382 2°52.676 221.6 0.2 286 22.5
2010-04-22 08:37:57 51°31.382 2°52.675 221.6 0.1 147 22.8
2010-04-22 08:38:02 51°31.383 2°52.675 221.2 0.2 246 22.1
2010-04-22 08:38:07 51°31.382 2°52.675 221.3 0.2 262 22.3
2010-04-22 08:38:12 51°31.382 2°52.675 222.2 0.1 180 22.8
2010-04-22 08:38:17 51°31.382 2°52.674 221.3 0.3 303 22.5
2010-04-22 08:38:22 51°31.382 2°52.674 221.5 0.3 145 22.7
2010-04-22 08:38:27 51°31.382 2°52.673 220.9 0.5 298 22
2010-04-22 08:38:32 51°31.382 2°52.674 221.2 0.3 135 22.8
2010-04-22 08:38:37 51°31.382 2°52.673 220.6 0.1 284 22.7
2010-04-22 08:38:42 51°31.382 2°52.673 220.1 -999 222 22.4
2010-04-22 08:38:47 51°31.382 2°52.673 220 0.1 146 22.9
2010-04-22 08:38:52 51°31.382 2°52.673 219.9 -999 289 22.6
2010-04-22 08:38:57 51°31.382 2°52.673 219.1 0.3 294 22.5
2010-04-22 08:39:02 51°31.382 2°52.673 219.5 0.1 116 22.8
2010-04-22 08:39:07 51°31.381 2°52.672 219.4 0.1 216 22.4
2010-04-22 08:39:12 51°31.381 2°52.672 218.7 0.2 274 22.6
2010-04-22 08:39:17 51°31.381 2°52.672 219.3 0.3 152 23
2010-04-22 08:39:22 51°31.381 2°52.671 218.7 0.4 292 22.5
2010-04-22 08:39:27 51°31.381 2°52.672 219.4 0.3 149 23
2010-04-22 08:39:32 51°31.381 2°52.671 218.8 0.5 292 22.3
2010-04-22 08:39:37 51°31.381 2°52.672 219.1 0.2 158 22.9
2010-04-22 08:39:42 51°31.381 2°52.671 219.1 0.3 295 22.5
2010-04-22 08:39:47 51°31.381 2°52.671 218.7 0.3 141 22.8
2010-04-22 08:39:52 51°31.381 2°52.671 218.8 0.3 312 22.8
2010-04-22 08:39:57 51°31.381 2°52.671 218.6 0.2 136 22.9
2010-04-22 08:40:02 51°31.381 2°52.67 218.6 0.2 282 22.3
2010-04-22 08:40:07 51°31.381 2°52.671 218.9 0.1 183 22.5
2010-04-22 08:40:12 51°31.381 2°52.671 219.5 -999 49 23.1
2010-04-22 08:40:17 51°31.381 2°52.67 219.2 -999 57 22.6
2010-04-22 08:40:22 51°31.381 2°52.67 218.8 0.1 292 22.5
2010-04-22 08:40:27 51°31.381 2°52.67 219 0.2 332 22.7
2010-04-22 08:40:32 51°31.381 2°52.671 219.3 0.1 81 23.1
2010-04-22 08:40:37 51°31.381 2°52.67 219.1 0.2 312 22.4
2010-04-22 08:40:42 51°31.381 2°52.67 218.6 0.1 294 22.6
2010-04-22 08:40:47 51°31.382 2°52.67 219.3 0.2 328 22.8
2010-04-22 08:40:52 51°31.382 2°52.67 218.8 0.1 70 22.8
2010-04-22 08:40:57 51°31.382 2°52.67 218.8 0.1 355 22.8
2010-04-22 08:41:02 51°31.382 2°52.67 218.6 0.1 60 22.7
2010-04-22 08:41:07 51°31.382 2°52.669 218.7 0.2 325 22.5
2010-04-22 08:41:12 51°31.382 2°52.67 218.8 0.1 83 22.9
2010-04-22 08:41:17 51°31.383 2°52.67 218.5 0.1 338 22.7
2010-04-22 08:41:22 51°31.383 2°52.67 218.3 0.2 313 22.5
2010-04-22 08:41:27 51°31.383 2°52.67 218.4 0.1 89 22.8
2010-04-22 08:41:32 51°31.383 2°52.67 218.1 0.2 324 22.5
2010-04-22 08:41:37 51°31.383 2°52.67 217.5 0.3 99 22.9
2010-04-22 08:41:42 51°31.383 2°52.669 217.3 0.1 350 22.2
2010-04-22 08:41:47 51°31.383 2°52.67 216.9 0.1 68 22.7
2010-04-22 08:41:52 51°31.383 2°52.67 217.3 0.1 26 22.9
2010-04-22 08:41:57 51°31.383 2°52.67 216.7 0.1 75 22.7
2010-04-22 08:42:02 51°31.383 2°52.67 216.2 0.3 326 22.6
2010-04-22 08:42:07 51°31.383 2°52.671 216.3 0.5 118 23.2
2010-04-22 08:42:12 51°31.384 2°52.67 215.4 0.4 319 22.3
2010-04-22 08:42:17 51°31.383 2°52.671 215.1 0.2 147 22.7
2010-04-22 08:42:22 51°31.384 2°52.671 215.6 0.3 307 22.7
2010-04-22 08:42:27 51°31.383 2°52.671 215.1 0.4 110 23.2
2010-04-22 08:42:32 51°31.384 2°52.67 214.5 0.2 328 22.7
2010-04-22 08:42:37 51°31.383 2°52.671 214.2 0.2 110 22.6
2010-04-22 08:42:42 51°31.383 2°52.671 214.1 0.2 288 22.6
2010-04-22 08:42:47 51°31.383 2°52.671 213.9 -999 111 22.5
2010-04-22 08:42:52 51°31.383 2°52.671 213.8 0.1 141 23.1
2010-04-22 08:42:57 51°31.384 2°52.671 213.8 0.1 106 22.6
2010-04-22 08:43:02 51°31.383 2°52.671 213.5 0.1 316 22.7
2010-04-22 08:43:07 51°31.383 2°52.671 213.7 0.1 306 22.7
2010-04-22 08:43:12 51°31.383 2°52.671 213.3 0.1 96 22.6
2010-04-22 08:43:17 51°31.383 2°52.671 213.2 0.1 39 22.8
2010-04-22 08:43:22 51°31.383 2°52.671 213.4 0.3 121 22.2
2010-04-22 08:43:27 51°31.383 2°52.671 212.7 0.2 282 22.6
2010-04-22 08:43:32 51°31.383 2°52.671 213.5 0.3 140 22.6
2010-04-22 08:43:37 51°31.383 2°52.671 213 0.5 286 22.5
2010-04-22 08:43:42 51°31.383 2°52.672 213.5 0.4 140 23.1
2010-04-22 08:43:47 51°31.383 2°52.671 213.2 0.2 267 22.7
2010-04-22 08:43:52 51°31.383 2°52.671 213.2 0.1 218 22.4
2010-04-22 08:43:57 51°31.382 2°52.671 213.3 0.4 190 22.9
2010-04-22 08:44:02 51°31.381 2°52.671 212.9 0.4 200 22.6
2010-04-22 08:44:07 51°31.381 2°52.67 212.3 0.6 201 22.7
2010-04-22 08:44:12 51°31.38 2°52.669 211.6 0.7 217 22.3
2010-04-22 08:44:17 51°31.379 2°52.669 211.5 0.7 208 22.2
2010-04-22 08:44:22 51°31.378 2°52.668 211.3 0.8 198 22.2
2010-04-22 08:44:27 51°31.378 2°52.667 210.5 0.8 220 21.7
2010-04-22 08:44:32 51°31.376 2°52.667 210.3 0.9 197 22.4
2010-04-22 08:44:37 51°31.376 2°52.665 210.5 0.8 214 21.9
2010-04-22 08:44:42 51°31.374 2°52.665 210 0.9 202 22.2
2010-04-22 08:44:47 51°31.373 2°52.663 210.1 0.9 220 22.2
2010-04-22 08:44:52 51°31.372 2°52.663 209.9 1 202 21.9
2010-04-22 08:44:57 51°31.371 2°52.662 209.8 0.9 219 21.8
2010-04-22 08:45:02 51°31.37 2°52.661 210.4 1 189 21.4
2010-04-22 08:45:07 51°31.368 2°52.659 209.6 1.1 219 21.4
2010-04-22 08:45:12 51°31.367 2°52.659 209.9 0.9 204 21.3
2010-04-22 08:45:17 51°31.366 2°52.657 209.9 1.1 207 21
2010-04-22 08:45:22 51°31.365 2°52.656 209.4 1 213 20.2
2010-04-22 08:45:27 51°31.363 2°52.656 209.4 1 192 20.7
2010-04-22 08:45:32 51°31.362 2°52.655 209.3 0.9 218 20.4
2010-04-22 08:45:37 51°31.361 2°52.654 209 1 199 19.9
2010-04-22 08:45:42 51°31.36 2°52.653 208.6 0.9 221 19.7
2010-04-22 08:45:47 51°31.359 2°52.652 209.1 0.9 203 19.4
2010-04-22 08:45:52 51°31.358 2°52.651 208.6 0.8 221 18.7
2010-04-22 08:45:57 51°31.357 2°52.651 208.7 0.9 185 19.4
2010-04-22 08:46:02 51°31.356 2°52.65 208.4 0.7 224 19.1
2010-04-22 08:46:07 51°31.355 2°52.649 208 0.7 197 20.1
2010-04-22 08:46:12 51°31.355 2°52.648 208.4 0.6 214 20.1
2010-04-22 08:46:17 51°31.354 2°52.648 208 0.6 201 20.4
2010-04-22 08:46:22 51°31.353 2°52.647 208.2 0.6 213 20.5
2010-04-22 08:46:27 51°31.352 2°52.646 207.8 0.7 207 20.7
2010-04-22 08:46:32 51°31.351 2°52.646 207.7 0.7 233 20.7
2010-04-22 08:46:37 51°31.35 2°52.646 208.3 0.6 172 21.6
2010-04-22 08:46:42 51°31.35 2°52.644 207.8 0.5 214 20.8
2010-04-22 08:46:47 51°31.349 2°52.644 207.1 0.6 204 21
2010-04-22 08:46:52 51°31.348 2°52.644 207.6 0.5 213 21.8
2010-04-22 08:46:57 51°31.348 2°52.643 207.4 0.4 196 21.9
2010-04-22 08:47:02 51°31.347 2°52.643 207.4 0.4 190 21.4
2010-04-22 08:47:07 51°31.347 2°52.642 206.9 0.5 224 22
2010-04-22 08:47:12 51°31.346 2°52.642 207.7 0.4 180 22.1
2010-04-22 08:47:17 51°31.346 2°52.641 207.3 0.4 238 22.3
2010-04-22 08:47:22 51°31.345 2°52.642 207.1 0.4 170 22.7
2010-04-22 08:47:27 51°31.345 2°52.641 206.9 0.4 240 22
2010-04-22 08:47:32 51°31.344 2°52.641 206.9 0.4 178 22.7
2010-04-22 08:47:37 51°31.344 2°52.641 206.8 0.2 221 22.7
2010-04-22 08:47:42 51°31.344 2°52.641 206.6 0.2 179 22.5
2010-04-22 08:47:47 51°31.344 2°52.64 206.3 0.3 242 22.5
2010-04-22 08:47:52 51°31.343 2°52.64 206.8 0.3 164 22.8
2010-04-22 08:47:57 51°31.343 2°52.64 206.9 0.3 199 22.6
2010-04-22 08:48:02 51°31.342 2°52.64 206.1 0.6 180 22.5
2010-04-22 08:48:07 51°31.341 2°52.639 204 1 190 22.2
2010-04-22 08:48:12 51°31.339 2°52.639 199.7 1.6 186 22.6
2010-04-22 08:48:17 51°31.336 2°52.639 194.3 2.3 170 23.1
2010-04-22 08:48:22 51°31.332 2°52.641 183.9 2.8 167 23
2010-04-22 08:48:27 51°31.328 2°52.644 175 3.1 154 23.5
2010-04-22 08:48:32 51°31.324 2°52.648 165.8 3.5 142 23.1
2010-04-22 08:48:37 51°31.32 2°52.654 158.5 3.9 136 23.8
2010-04-22 08:48:42 51°31.317 2°52.661 149.4 4.2 126 23.1
2010-04-22 08:48:47 51°31.314 2°52.67 139.3 4.5 119 22.7
2010-04-22 08:48:52 51°31.311 2°52.68 129.5 4.8 108 23
2010-04-22 08:48:57 51°31.31 2°52.69 120.5 5.1 104 22.8
2010-04-22 08:49:02 51°31.309 2°52.702 112.4 5.5 92 22.8
2010-04-22 08:49:07 51°31.309 2°52.716 105 6 91 22.6
2010-04-22 08:49:12 51°31.311 2°52.73 96.9 6.7 81 21.8
2010-04-22 08:49:17 51°31.312 2°52.746 89.7 7.3 77 21.7
2010-04-22 08:49:22 51°31.316 2°52.762 84 7.7 68 20.7
2010-04-22 08:49:27 51°31.321 2°52.779 75.6 8.1 65 19.2
2010-04-22 08:49:32 51°31.327 2°52.795 68.3 8.6 59 20.1
2010-04-22 08:49:37 51°31.335 2°52.812 62.3 9.6 55 22.5
2010-04-22 08:49:42 51°31.344 2°52.829 57.8 10.4 49 22.7
2010-04-22 08:49:47 51°31.355 2°52.846 50.9 11.1 44 22.8
2010-04-22 08:49:52 51°31.367 2°52.864 46.9 11.8 41 22.7
2010-04-22 08:49:57 51°31.381 2°52.881 42.7 12.5 39 22.3
2010-04-22 08:50:02 51°31.394 2°52.901 43.4 13 42 21.7
2010-04-22 08:50:07 51°31.409 2°52.919 43.2 13.4 39 20.9
2010-04-22 08:50:12 51°31.423 2°52.939 43.2 13.7 41 17.6
2010-04-22 08:50:17 51°31.438 2°52.959 42.9 14 39 20.6
2010-04-22 08:50:22 51°31.453 2°52.98 42.9 14.4 41 21.8
2010-04-22 08:50:27 51°31.468 2°53.001 43.1 14.4 40 20.7
2010-04-22 08:50:32 51°31.484 2°53.021 42.9 14.5 40 22.2
2010-04-22 08:50:37 51°31.499 2°53.043 43.3 14.7 41 22.1
2010-04-22 08:50:42 51°31.515 2°53.064 43.1 14.7 41 22.6
2010-04-22 08:50:47 51°31.53 2°53.085 42.9 14.8 41 22.6
2010-04-22 08:50:52 51°31.546 2°53.107 43.3 14.8 41 22
2010-04-22 08:50:57 51°31.561 2°53.129 43.5 14.8 41 22.2
2010-04-22 08:51:02 51°31.577 2°53.15 43.6 14.8 42 19
2010-04-22 08:51:07 51°31.592 2°53.172 43.8 14.9 41 22.5
2010-04-22 08:51:12 51°31.608 2°53.194 43.8 14.8 42 22.9
2010-04-22 08:51:17 51°31.624 2°53.216 43.4 14.9 41 22.3
2010-04-22 08:51:22 51°31.639 2°53.238 44 14.8 41 22.5
2010-04-22 08:51:27 51°31.654 2°53.26 43.8 14.8 41 21.7
2010-04-22 08:51:32 51°31.67 2°53.282 44 15 42 20.4
2010-04-22 08:51:37 51°31.685 2°53.304 43.9 14.9 42 22.5
2010-04-22 08:51:42 51°31.701 2°53.325 44.1 14.8 42 22.6
2010-04-22 08:51:47 51°31.716 2°53.347 43.6 14.7 41 21.6
2010-04-22 08:51:52 51°31.731 2°53.369 44 14.9 42 20.9
2010-04-22 08:51:57 51°31.747 2°53.391 44.2 14.9 41 22.5
2010-04-22 08:52:02 51°31.763 2°53.412 43.7 15 40 22.9
2010-04-22 08:52:07 51°31.779 2°53.435 43.6 15.1 42 23.2
2010-04-22 08:52:12 51°31.794 2°53.456 43.7 15 42 23.2
2010-04-22 08:52:17 51°31.809 2°53.478 44 14.9 41 22.6
2010-04-22 08:52:22 51°31.825 2°53.5 43.6 14.9 41 22.9
2010-04-22 08:53:01 51°31.944 2°53.672 44.3 14.7 42 22
2010-04-22 08:53:06 51°31.96 2°53.694 44.4 14.9 41 23
2010-04-22 08:53:11 51°31.975 2°53.716 44.4 15 43 23.2
2010-04-22 08:53:39 51°32.061 2°53.84 44.4 14.9 43 21.4
2010-04-22 08:53:44 51°32.076 2°53.862 45.1 14.8 40 22.2
2010-04-22 08:53:44 51°32.076 2°53.862 45.1 14.8 40 22.2
2010-04-22 08:53:56 51°32.113 2°53.916 44.4 15.2 42 23.6
2010-04-22 08:54:01 51°32.129 2°53.938 43.8 14.8 43 19.8
2010-04-22 08:54:01 51°32.129 2°53.938 44.1 14.8 43 19.8
2010-04-22 08:54:11 51°32.159 2°53.982 44.8 14.9 42 24
2010-04-22 08:54:32 51°32.225 2°54.075 44.4 15 42 23.9
2010-04-22 08:54:37 51°32.24 2°54.098 44.2 15 41 22.8
2010-04-22 08:55:05 51°32.327 2°54.222 44 14.9 42 23.5
2010-04-22 08:55:25 51°32.388 2°54.311 44.4 14.9 43 23.1
2010-04-22 08:55:30 51°32.404 2°54.333 44.5 15 43 23.8
2010-04-22 08:55:35 51°32.419 2°54.356 45.1 15 43 22.8
2010-04-22 08:55:40 51°32.434 2°54.378 44.5 14.9 42 22.7
2010-04-22 08:55:45 51°32.45 2°54.401 43.9 15 42 24.2
2010-04-22 08:55:50 51°32.465 2°54.423 44.5 15.1 42 24.6
2010-04-22 08:55:55 51°32.481 2°54.445 44.4 15 42 23
2010-04-22 08:56:00 51°32.497 2°54.468 44 15 43 22.6
2010-04-22 08:56:05 51°32.512 2°54.49 44.4 15 42 24.1
2010-04-22 08:56:10 51°32.527 2°54.513 45 15 43 24.1
2010-04-22 08:56:15 51°32.543 2°54.535 44.4 14.8 42 25.3
2010-04-22 08:56:20 51°32.558 2°54.557 44.9 14.8 40 23.9
2010-04-22 08:56:25 51°32.574 2°54.578 43.4 14.9 38 22
2010-04-22 08:56:30 51°32.591 2°54.598 40.6 15 36 25.2
2010-04-22 08:56:35 51°32.607 2°54.618 38.8 15 37 25
2010-04-22 08:56:40 51°32.625 2°54.636 37.3 14.8 34 24.9
2010-04-22 08:56:45 51°32.642 2°54.654 35.5 14.8 32 20.8
2010-04-22 08:56:50 51°32.66 2°54.671 34.4 14.9 32 24.3
2010-04-22 08:56:55 51°32.677 2°54.688 33 14.9 31 24.7
2010-04-22 08:57:00 51°32.695 2°54.705 31.8 14.9 31 22.2
2010-04-22 08:57:05 51°32.713 2°54.721 31.3 14.9 28 23.1
2010-04-22 08:57:10 51°32.731 2°54.737 30.1 14.9 30 24.4
2010-04-22 08:57:15 51°32.75 2°54.753 30.2 14.9 29 24.8
2010-04-22 08:57:20 51°32.768 2°54.768 29.5 15 27 24.4
2010-04-22 08:57:25 51°32.786 2°54.785 29.3 14.9 29 23.2
2010-04-22 08:57:30 51°32.805 2°54.8 29.1 15.1 27 25.7
2010-04-22 08:57:35 51°32.823 2°54.815 28.4 15 28 24.3
2010-04-22 08:57:40 51°32.841 2°54.831 28.6 15 27 25.1
2010-04-22 08:57:45 51°32.86 2°54.846 28.4 15.2 27 26.8
2010-04-22 08:57:50 51°32.878 2°54.862 28.4 15.2 28 27.7
2010-04-22 08:57:55 51°32.897 2°54.877 27.9 15 27 25.7
2010-04-22 08:58:00 51°32.915 2°54.893 28.9 15 30 26.1
2010-04-22 08:58:05 51°32.933 2°54.909 29.2 14.8 28 26.1
2010-04-22 08:58:10 51°32.95 2°54.926 30.3 14.8 33 25.9
2010-04-22 08:58:15 51°32.968 2°54.943 32 14.9 29 24.9
2010-04-22 08:58:20 51°32.986 2°54.96 31.7 14.9 31 26.1
2010-04-22 08:58:25 51°33.003 2°54.977 32.4 14.8 31 23.7
2010-04-22 08:58:30 51°33.021 2°54.994 32.7 14.8 32 24.3
2010-04-22 08:58:35 51°33.038 2°55.012 33.5 14.9 32 26
2010-04-22 08:58:40 51°33.056 2°55.028 33.6 14.8 31 26
2010-04-22 08:58:45 51°33.073 2°55.046 34.3 14.8 33 26.8
2010-04-22 08:58:50 51°33.09 2°55.063 34.2 14.7 33 24.9
2010-04-22 08:58:55 51°33.107 2°55.081 34.6 14.6 33 25.1
2010-04-22 08:59:00 51°33.124 2°55.098 34.3 14.6 32 25.6
2010-04-22 08:59:05 51°33.141 2°55.115 34.8 14.5 32 26.2
2010-04-22 08:59:10 51°33.158 2°55.133 34.7 14.6 33 26.1
2010-04-22 08:59:15 51°33.175 2°55.151 34.9 14.6 33 25.1
2010-04-22 08:59:20 51°33.192 2°55.168 35.1 14.6 32 25.6
2010-04-22 08:59:25 51°33.209 2°55.186 35.2 14.5 34 26.1
2010-04-22 08:59:30 51°33.225 2°55.204 35.7 13.8 34 25.9
2010-04-22 08:59:35 51°33.239 2°55.223 38.5 13.2 41 23.8
2010-04-22 08:59:40 51°33.251 2°55.243 43.6 12.5 45 26.1
2010-04-22 08:59:45 51°33.261 2°55.263 49.2 11.6 54 26.8
2010-04-22 08:59:50 51°33.269 2°55.284 56.2 11.2 59 27.1
2010-04-22 08:59:55 51°33.276 2°55.306 63.2 10.9 64 27.1
2010-04-22 08:59:59 51°33.281 2°55.324 68.3 10.5 66 26.6
2010-04-22 09:00:05 51°33.287 2°55.35 71.2 10.3 68 24.8
2010-04-22 09:00:10 51°33.292 2°55.371 73.4 9.8 72 25.7
2010-04-22 09:00:15 51°33.296 2°55.39 74.6 9.5 71 26.3
2010-04-22 09:00:20 51°33.299 2°55.41 77.7 9.1 77 27.3
2010-04-22 09:00:25 51°33.301 2°55.429 82.1 8.5 82 27.3
2010-04-22 09:00:30 51°33.302 2°55.448 86.3 8.3 84 27.2
2010-04-22 09:00:35 51°33.302 2°55.465 91.9 8 89 27.6
2010-04-22 09:00:40 51°33.302 2°55.483 95.7 7.7 93 26.1
2010-04-22 09:00:45 51°33.302 2°55.5 98.9 7.6 92 26.5
2010-04-22 09:00:50 51°33.3 2°55.516 101.7 7.3 97 27.5
2010-04-22 09:00:55 51°33.3 2°55.532 102.6 7 95 27
2010-04-22 09:01:00 51°33.298 2°55.547 105.2 6.9 98 27.9
2010-04-22 09:01:05 51°33.296 2°55.561 105.9 6.6 105 28.2
2010-04-22 09:01:10 51°33.294 2°55.576 109.5 6.5 103 27.2
2010-04-22 09:01:15 51°33.291 2°55.589 112.8 6.3 110 28.1
2010-04-22 09:01:20 51°33.289 2°55.602 115.5 6 112 27.1
2010-04-22 09:01:25 51°33.284 2°55.613 120.9 6 114 27.5
2010-04-22 09:01:30 51°33.281 2°55.625 122.1 5.5 122 27.3
2010-04-22 09:01:35 51°33.277 2°55.635 128.5 5.3 121 27.8
2010-04-22 09:01:40 51°33.274 2°55.644 129.6 4.9 121 27.2
2010-04-22 09:01:45 51°33.27 2°55.653 133.2 4.6 123 27.2
2010-04-22 09:01:50 51°33.267 2°55.661 135.1 4.4 127 26.8
2010-04-22 09:01:55 51°33.263 2°55.668 137.7 4.1 130 26.8
2010-04-22 09:02:00 51°33.26 2°55.675 139.1 3.9 127 27.3
2010-04-22 09:02:05 51°33.256 2°55.682 141.6 3.7 128 26.6
2010-04-22 09:02:10 51°33.253 2°55.688 143.5 3.6 130 27.1
2010-04-22 09:02:15 51°33.25 2°55.694 143.4 3.5 131 27.2
2010-04-22 09:02:20 51°33.247 2°55.701 142.9 3.4 124 27.3
2010-04-22 09:02:25 51°33.244 2°55.706 141 3.3 132 27.6
2010-04-22 09:02:30 51°33.242 2°55.713 140.9 3.3 117 26.9
2010-04-22 09:02:35 51°33.239 2°55.718 140.1 2.9 130 27.6
2010-04-22 09:02:40 51°33.238 2°55.723 140 2.9 116 27.2
2010-04-22 09:02:45 51°33.236 2°55.728 138.7 2.7 122 27.8
2010-04-22 09:02:50 51°33.234 2°55.734 137.6 2.7 113 27.3
2010-04-22 09:02:55 51°33.232 2°55.739 136.5 2.6 117 27.4
2010-04-22 09:03:00 51°33.231 2°55.744 135 2.5 117 27.4
2010-04-22 09:03:05 51°33.229 2°55.749 136.1 2.6 108 27
2010-04-22 09:03:10 51°33.228 2°55.753 134.4 2.3 122 27.5
2010-04-22 09:03:15 51°33.227 2°55.758 135.7 2.4 108 27.3
2010-04-22 09:03:20 51°33.225 2°55.762 135.7 2.2 117 27.4
2010-04-22 09:03:25 51°33.225 2°55.767 136.3 2.3 107 27.7
2010-04-22 09:03:30 51°33.223 2°55.771 136.4 2 116 27.6
2010-04-22 09:03:35 51°33.222 2°55.776 136.2 2.2 108 27.3
2010-04-22 09:03:40 51°33.221 2°55.78 137.3 2.1 111 27.4
2010-04-22 09:03:45 51°33.22 2°55.784 137.1 2.1 113 27.2
2010-04-22 09:03:50 51°33.219 2°55.788 138 2 108 27.2
2010-04-22 09:03:55 51°33.219 2°55.792 137.9 1.9 111 27.3
2010-04-22 09:04:00 51°33.218 2°55.796 138.7 1.9 106 27
2010-04-22 09:04:05 51°33.217 2°55.799 138.7 1.7 113 27.3
2010-04-22 09:04:11 51°33.216 2°55.804 139.3 1.8 104 26.8
2010-04-22 09:04:15 51°33.215 2°55.807 140.2 1.6 110 27.3
2010-04-22 09:04:20 51°33.215 2°55.81 140.8 1.7 106 27.2
2010-04-22 09:04:25 51°33.214 2°55.814 141.5 1.8 109 27.1
2010-04-22 09:04:30 51°33.213 2°55.817 141.9 1.7 105 27.1
2010-04-22 09:04:35 51°33.212 2°55.821 142.3 1.5 115 27.2
2010-04-22 09:04:40 51°33.212 2°55.824 143.3 1.7 100 25.9
2010-04-22 09:04:45 51°33.211 2°55.827 143.4 1.5 110 26.6
2010-04-22 09:04:50 51°33.211 2°55.831 143.8 1.7 96 25.9
2010-04-22 09:04:55 51°33.21 2°55.834 144.1 1.3 114 26.5
2010-04-22 09:05:00 51°33.21 2°55.838 143.5 1.6 95 26
2010-04-22 09:05:05 51°33.209 2°55.841 144 1.3 110 25.3
2010-04-22 09:05:10 51°33.209 2°55.844 144 1.7 92 25.1
2010-04-22 09:05:15 51°33.208 2°55.847 144.4 1.2 112 25.5
2010-04-22 09:05:20 51°33.208 2°55.85 144.6 1.5 96 24.6
2010-04-22 09:05:25 51°33.208 2°55.853 145.4 1.4 100 24.4
2010-04-22 09:05:30 51°33.208 2°55.855 144.9 1.3 98 25
2010-04-22 09:05:35 51°33.208 2°55.859 144.8 1.3 94 23.8
2010-04-22 09:05:40 51°33.207 2°55.861 146 1.2 98 23.5
2010-04-22 09:05:45 51°33.208 2°55.865 145.7 1.6 85 23.4
2010-04-22 09:05:50 51°33.207 2°55.867 146.1 1.1 102 23.7
2010-04-22 09:05:55 51°33.207 2°55.87 146.2 1.2 92 24.2
2010-04-22 09:05:59 51°33.207 2°55.872 146.6 1.1 97 23.6
2010-04-22 09:06:05 51°33.207 2°55.875 146.9 1.3 88 23.5
2010-04-22 09:06:10 51°33.207 2°55.878 146.7 1 94 23.9
2010-04-22 09:06:15 51°33.207 2°55.881 146.8 1.3 93 23.1
2010-04-22 09:06:20 51°33.207 2°55.883 147.5 1.2 89 23.3
2010-04-22 09:06:25 51°33.207 2°55.886 146.4 1 93 24.4
2010-04-22 09:06:30 51°33.207 2°55.889 147.2 1.1 85 24
2010-04-22 09:06:35 51°33.207 2°55.891 147.3 1.2 87 24.3
2010-04-22 09:06:40 51°33.207 2°55.893 146.8 1.1 92 25
2010-04-22 09:06:45 51°33.207 2°55.896 147.1 1.2 84 24.8
2010-04-22 09:06:50 51°33.207 2°55.899 147.2 1.1 87 24.9
2010-04-22 09:06:55 51°33.207 2°55.901 147.4 1.2 90 25.2
2010-04-22 09:07:00 51°33.207 2°55.903 147.1 1 94 25.3
2010-04-22 09:07:05 51°33.207 2°55.906 147.7 1.1 85 25.6
2010-04-22 09:07:10 51°33.207 2°55.908 147.7 1 87 26.1
2010-04-22 09:07:15 51°33.207 2°55.91 148.1 0.9 87 25.6
2010-04-22 09:07:20 51°33.208 2°55.913 148.7 1.2 83 25.5
2010-04-22 09:07:25 51°33.208 2°55.914 148.2 0.9 87 25.4
2010-04-22 09:07:30 51°33.208 2°55.917 148.9 1.1 85 25.3
2010-04-22 09:07:35 51°33.208 2°55.919 149.2 0.7 90 25.1
2010-04-22 09:07:40 51°33.208 2°55.921 149.1 1.1 79 26.2
2010-04-22 09:07:45 51°33.208 2°55.923 149.1 0.9 85 25.7
2010-04-22 09:07:50 51°33.208 2°55.926 149.6 1.2 77 25.5
2010-04-22 09:07:55 51°33.208 2°55.928 149.3 0.8 90 25.4
2010-04-22 09:08:00 51°33.209 2°55.93 149.8 1.2 81 24.9
2010-04-22 09:08:05 51°33.209 2°55.932 149.9 0.9 80 25.4
2010-04-22 09:08:10 51°33.209 2°55.934 149.6 0.7 89 25.7
2010-04-22 09:08:15 51°33.209 2°55.937 150.5 1.2 79 25
2010-04-22 09:08:20 51°33.209 2°55.938 149.9 0.8 90 26.2
2010-04-22 09:08:25 51°33.21 2°55.941 150.1 0.9 77 25.9
2010-04-22 09:08:30 51°33.21 2°55.942 150.9 0.9 82 26.3
2010-04-22 09:08:35 51°33.21 2°55.945 150.7 1 81 25.7
2010-04-22 09:08:40 51°33.21 2°55.946 151 0.9 86 26
2010-04-22 09:08:45 51°33.21 2°55.948 150.5 0.9 86 25.5
2010-04-22 09:08:50 51°33.211 2°55.95 150.9 0.9 82 25.4
2010-04-22 09:08:55 51°33.211 2°55.952 151.1 0.8 81 25.9
2010-04-22 09:09:00 51°33.211 2°55.954 151.1 1 78 25.6
2010-04-22 09:09:05 51°33.212 2°55.955 151.5 0.8 81 25.8
2010-04-22 09:09:11 51°33.212 2°55.958 151.8 0.8 82 26.3
2010-04-22 09:09:15 51°33.212 2°55.96 152.3 0.8 78 26.5
2010-04-22 09:09:20 51°33.212 2°55.961 152.4 0.9 78 26.4
2010-04-22 09:09:25 51°33.212 2°55.963 152.8 0.9 77 26.5
2010-04-22 09:09:30 51°33.213 2°55.965 152.8 0.8 79 26.7
2010-04-22 09:09:35 51°33.213 2°55.967 152.9 0.9 76 26.3
2010-04-22 09:09:40 51°33.213 2°55.969 153.2 1 72 25.8
2010-04-22 09:09:45 51°33.213 2°55.971 153 0.8 78 26
2010-04-22 09:09:50 51°33.214 2°55.973 153.2 0.8 75 26
2010-04-22 09:09:55 51°33.214 2°55.974 153.2 0.7 78 26.6
2010-04-22 09:10:00 51°33.214 2°55.977 153.3 0.9 72 26.4
2010-04-22 09:10:05 51°33.215 2°55.978 153.3 0.7 84 26.8
2010-04-22 09:10:10 51°33.215 2°55.98 153.3 1 76 26.4
2010-04-22 09:10:15 51°33.215 2°55.982 153.2 0.7 82 26.7
2010-04-22 09:10:20 51°33.215 2°55.984 153.1 0.9 76 26.6
2010-04-22 09:10:25 51°33.216 2°55.986 153.2 0.9 71 26.6
2010-04-22 09:10:30 51°33.216 2°55.987 153 0.8 77 26.4
2010-04-22 09:10:35 51°33.216 2°55.989 153.4 0.9 71 26.2
2010-04-22 09:10:40 51°33.217 2°55.99 153.3 0.7 73 26.9
2010-04-22 09:10:45 51°33.217 2°55.993 153.1 0.8 73 26.4
2010-04-22 09:10:50 51°33.217 2°55.994 153.2 0.9 74 26.4
2010-04-22 09:10:55 51°33.218 2°55.996 153 0.8 72 26.7
2010-04-22 09:11:00 51°33.218 2°55.997 153.2 0.7 75 26.8
2010-04-22 09:11:05 51°33.218 2°56 153.3 0.9 72 26.9
2010-04-22 09:11:11 51°33.219 2°56.001 153.5 0.8 77 26.9
2010-04-22 09:11:15 51°33.219 2°56.003 153.8 0.8 75 27
2010-04-22 09:11:20 51°33.219 2°56.004 153.9 0.7 74 27.2
2010-04-22 09:11:25 51°33.219 2°56.006 154.2 0.8 73 26.8
2010-04-22 09:11:30 51°33.22 2°56.008 154.6 0.9 74 26.7
2010-04-22 09:11:35 51°33.22 2°56.01 154.7 0.7 72 26.6
2010-04-22 09:11:40 51°33.22 2°56.011 154.8 0.8 66 26.7
2010-04-22 09:11:45 51°33.221 2°56.013 155 0.7 73 26.9
2010-04-22 09:11:50 51°33.221 2°56.015 155.4 0.8 74 26.9
2010-04-22 09:11:55 51°33.222 2°56.016 155.8 0.7 73 27.8
2010-04-22 09:12:00 51°33.222 2°56.018 155.8 0.8 66 26.8
2010-04-22 09:12:05 51°33.222 2°56.019 156.2 0.9 72 27.3
2010-04-22 09:12:10 51°33.222 2°56.021 156.1 0.6 69 26.7
2010-04-22 09:12:15 51°33.223 2°56.023 156.7 0.9 72 26.9
2010-04-22 09:12:20 51°33.223 2°56.024 156.7 0.6 73 26.8
2010-04-22 09:12:25 51°33.224 2°56.026 156.7 1 73 27.1
2010-04-22 09:12:30 51°33.224 2°56.027 156.7 0.6 70 27.5
2010-04-22 09:12:35 51°33.224 2°56.029 156.9 1 72 27.1
2010-04-22 09:12:40 51°33.224 2°56.031 157.1 0.6 75 27.3
2010-04-22 09:12:45 51°33.225 2°56.033 157.1 0.8 72 27.3
2010-04-22 09:12:50 51°33.225 2°56.034 157.6 0.6 65 27
2010-04-22 09:12:55 51°33.225 2°56.036 157.7 0.7 69 26.8
2010-04-22 09:12:59 51°33.226 2°56.037 158.2 0.7 71 26.5
2010-04-22 09:13:05 51°33.226 2°56.039 158.3 0.8 70 27.1
2010-04-22 09:13:10 51°33.226 2°56.04 158.4 0.7 68 27.1
2010-04-22 09:13:15 51°33.227 2°56.042 158.8 0.7 73 27.2
2010-04-22 09:13:20 51°33.227 2°56.043 159 0.7 62 27.7
2010-04-22 09:13:25 51°33.228 2°56.045 159.4 0.8 65 27.8
2010-04-22 09:13:30 51°33.228 2°56.046 159.6 0.6 65 27.1
2010-04-22 09:13:35 51°33.228 2°56.047 159.8 0.7 67 27.3
2010-04-22 09:13:40 51°33.229 2°56.049 160.3 0.7 65 27.2
2010-04-22 09:13:45 51°33.229 2°56.05 160.5 0.7 69 26.8
2010-04-22 09:13:50 51°33.23 2°56.051 160.9 0.7 67 27.4
2010-04-22 09:13:55 51°33.23 2°56.053 161.4 0.7 60 27.6
2010-04-22 09:14:00 51°33.23 2°56.054 161.5 0.7 60 27.6
2010-04-22 09:14:05 51°33.231 2°56.055 161.8 0.6 59 27.4
2010-04-22 09:14:10 51°33.231 2°56.057 162.3 0.7 59 27.7
2010-04-22 09:14:15 51°33.232 2°56.058 162.3 0.7 57 27.1
2010-04-22 09:14:20 51°33.232 2°56.06 162.8 0.7 62 27.2
2010-04-22 09:14:25 51°33.233 2°56.061 163.4 0.7 59 27.2
2010-04-22 09:14:30 51°33.233 2°56.062 163.6 0.7 60 27.2
2010-04-22 09:14:35 51°33.234 2°56.063 163.9 0.6 56 27.4
2010-04-22 09:14:40 51°33.234 2°56.065 164.1 0.6 62 27.7
2010-04-22 09:14:45 51°33.234 2°56.066 164.7 0.7 61 27.5
2010-04-22 09:14:50 51°33.235 2°56.067 164.8 0.6 68 27.6
2010-04-22 09:14:55 51°33.235 2°56.069 165 0.6 59 27.7
2010-04-22 09:15:00 51°33.236 2°56.07 165.6 0.8 65 27.7
2010-04-22 09:15:05 51°33.236 2°56.071 165.7 0.8 61 27.3
2010-04-22 09:15:10 51°33.236 2°56.073 165.6 0.6 57 27.4
2010-04-22 09:15:15 51°33.237 2°56.074 166.1 0.6 63 27
2010-04-22 09:15:20 51°33.237 2°56.076 166.6 0.7 65 27.3
2010-04-22 09:15:25 51°33.238 2°56.077 166.8 0.7 65 27.5
2010-04-22 09:15:30 51°33.238 2°56.078 167.2 0.7 64 27.7
2010-04-22 09:15:35 51°33.239 2°56.079 167.5 0.7 55 28.1
2010-04-22 09:15:40 51°33.239 2°56.081 167.7 0.6 63 27.3
2010-04-22 09:15:45 51°33.239 2°56.082 168.4 0.6 63 27.3
2010-04-22 09:15:50 51°33.24 2°56.083 168.5 0.7 61 27.6
2010-04-22 09:15:55 51°33.24 2°56.085 168.8 0.6 58 27.5
2010-04-22 09:16:00 51°33.241 2°56.086 169 0.7 59 27.7
2010-04-22 09:16:05 51°33.241 2°56.087 169.4 0.5 56 27.8
2010-04-22 09:16:10 51°33.241 2°56.089 169.7 0.7 66 27.7
2010-04-22 09:16:15 51°33.242 2°56.09 169.8 0.5 67 27.9
2010-04-22 09:16:20 51°33.242 2°56.091 170.2 0.6 74 27.7
2010-04-22 09:16:25 51°33.242 2°56.092 170.6 0.6 99 27.7
2010-04-22 09:16:30 51°33.241 2°56.094 169.8 0.8 113 27.9
2010-04-22 09:16:35 51°33.241 2°56.096 168 0.9 123 28
2010-04-22 09:16:40 51°33.24 2°56.098 165.2 1.2 118 27.9
2010-04-22 09:16:45 51°33.239 2°56.1 161 1.3 124 28.1
2010-04-22 09:16:50 51°33.237 2°56.104 156.9 1.6 121 27.9
2010-04-22 09:16:55 51°33.236 2°56.107 152.3 1.8 119 27.3
2010-04-22 09:17:00 51°33.235 2°56.111 147.6 1.9 120 28
2010-04-22 09:17:05 51°33.234 2°56.115 142.1 2.1 119 27.5
2010-04-22 09:17:10 51°33.232 2°56.12 138 2.4 108 27.7
2010-04-22 09:17:15 51°33.231 2°56.125 132 2.4 112 27.9
2010-04-22 09:17:20 51°33.23 2°56.131 128.5 2.8 104 27.5
2010-04-22 09:17:25 51°33.229 2°56.137 124.9 2.9 110 27.5
2010-04-22 09:17:30 51°33.228 2°56.144 122.4 3.1 106 27.7
2010-04-22 09:17:35 51°33.227 2°56.151 120.8 3.3 101 27.3
2010-04-22 09:17:40 51°33.226 2°56.158 118.8 3.3 105 27.9
2010-04-22 09:17:45 51°33.225 2°56.166 117.1 3.5 101 27.8
2010-04-22 09:17:50 51°33.224 2°56.174 116.5 3.6 103 27.3
2010-04-22 09:17:55 51°33.223 2°56.182 116.2 3.7 100 27.4
2010-04-22 09:18:00 51°33.221 2°56.189 114.5 3.4 105 27.7
2010-04-22 09:18:05 51°33.221 2°56.197 113.9 3.4 100 27.8
2010-04-22 09:18:11 51°33.22 2°56.206 114 3.3 98 27
2010-04-22 09:18:15 51°33.22 2°56.212 112.6 3.4 94 27.4
2010-04-22 09:18:20 51°33.22 2°56.219 111.5 3.2 95 27.4
2010-04-22 09:18:25 51°33.219 2°56.226 111.5 3.1 96 27.8
2010-04-22 09:18:30 51°33.219 2°56.233 110.7 3 94 27.1
2010-04-22 09:18:35 51°33.219 2°56.24 110.2 3.1 94 27
2010-04-22 09:18:40 51°33.219 2°56.247 109.2 3 92 26.8
2010-04-22 09:18:45 51°33.219 2°56.253 109.1 3 91 27.3
2010-04-22 09:18:50 51°33.219 2°56.259 108.4 3 89 27.3
2010-04-22 09:18:55 51°33.218 2°56.266 108.5 2.8 93 26.8
2010-04-22 09:19:00 51°33.219 2°56.272 108.4 2.9 83 25.9
2010-04-22 09:19:05 51°33.218 2°56.277 108.3 2.7 97 27
2010-04-22 09:19:10 51°33.219 2°56.284 108.2 2.8 82 26.4
2010-04-22 09:19:15 51°33.218 2°56.289 108.3 2.5 100 26.9
2010-04-22 09:19:20 51°33.219 2°56.295 107.6 2.7 81 26.6
2010-04-22 09:19:25 51°33.219 2°56.301 108.4 2.6 85 26.8
2010-04-22 09:19:30 51°33.219 2°56.306 108 2.5 88 27.6
2010-04-22 09:19:35 51°33.219 2°56.312 108.1 2.5 85 27.5
2010-04-22 09:19:40 51°33.22 2°56.318 108.2 2.4 88 27.2
2010-04-22 09:19:45 51°33.22 2°56.323 108.2 2.5 83 27.1
2010-04-22 09:19:50 51°33.22 2°56.328 107.9 2.5 82 27.8
2010-04-22 09:19:55 51°33.22 2°56.333 107.6 2.3 87 28.2
2010-04-22 09:20:00 51°33.221 2°56.338 108.3 2.4 81 27.9
2010-04-22 09:20:05 51°33.221 2°56.343 108.1 2.1 91 28.3
2010-04-22 09:20:10 51°33.222 2°56.348 108.1 2.1 87 28
2010-04-22 09:20:15 51°33.222 2°56.353 109 2.2 84 27.7
2010-04-22 09:20:20 51°33.222 2°56.358 108.9 2.2 82 28.3
2010-04-22 09:20:25 51°33.222 2°56.362 108.5 2.1 87 28.3
2010-04-22 09:20:30 51°33.223 2°56.367 108.7 2.2 79 27.9
2010-04-22 09:20:35 51°33.223 2°56.372 108.8 2 85 28.3
2010-04-22 09:20:40 51°33.224 2°56.377 108.5 2.2 76 27.9
2010-04-22 09:20:45 51°33.224 2°56.381 108.3 1.9 89 28.2
2010-04-22 09:20:50 51°33.225 2°56.385 108.2 2.2 74 28.2
2010-04-22 09:20:55 51°33.225 2°56.39 108 1.9 86 28.1
2010-04-22 09:21:00 51°33.225 2°56.394 108 2.2 72 28.2
2010-04-22 09:21:05 51°33.226 2°56.398 107.5 1.8 90 28.2
2010-04-22 09:21:10 51°33.226 2°56.403 107.8 2 75 28
2010-04-22 09:21:15 51°33.227 2°56.407 107.6 1.9 82 28
2010-04-22 09:21:20 51°33.227 2°56.411 107.7 2 77 27.6
2010-04-22 09:21:25 51°33.228 2°56.415 107.7 1.8 83 27.6
2010-04-22 09:21:30 51°33.228 2°56.419 107.9 1.9 75 27.1
2010-04-22 09:21:35 51°33.229 2°56.423 107.5 1.9 80 27.3
2010-04-22 09:21:40 51°33.229 2°56.427 107.5 1.8 85 27.2
2010-04-22 09:21:45 51°33.23 2°56.431 107.6 1.7 79 26.6
2010-04-22 09:21:50 51°33.23 2°56.434 108.4 1.8 76 26.9
2010-04-22 09:21:55 51°33.231 2°56.438 108.1 1.7 78 26.6
2010-04-22 09:22:00 51°33.231 2°56.442 108.2 1.8 76 26.1
2010-04-22 09:22:05 51°33.232 2°56.446 108.1 1.6 78 26.5
2010-04-22 09:22:10 51°33.232 2°56.449 108.3 1.7 73 26.5
2010-04-22 09:22:15 51°33.233 2°56.453 108.3 1.6 78 26.6
2010-04-22 09:22:20 51°33.233 2°56.456 108.4 1.6 77 26.9
2010-04-22 09:22:25 51°33.234 2°56.46 108.7 1.6 76 26.9
2010-04-22 09:22:30 51°33.234 2°56.463 108.5 1.6 76 26.7
2010-04-22 09:22:35 51°33.235 2°56.466 108.4 1.6 76 26.4
2010-04-22 09:22:40 51°33.235 2°56.469 108.5 1.4 77 26.7
2010-04-22 09:22:45 51°33.236 2°56.473 109 1.5 80 27
2010-04-22 09:22:50 51°33.236 2°56.476 109.4 1.6 69 26.7
2010-04-22 09:22:55 51°33.237 2°56.479 109.2 1.4 89 26.8
2010-04-22 09:23:00 51°33.237 2°56.483 109.7 1.6 69 25.7
2010-04-22 09:23:05 51°33.238 2°56.486 109.7 1.4 81 25.8
2010-04-22 09:23:10 51°33.238 2°56.489 109.8 1.5 67 25.8
2010-04-22 09:23:15 51°33.238 2°56.492 110.4 1.2 86 25.5
2010-04-22 09:23:20 51°33.239 2°56.495 111.1 1.4 73 25.1
2010-04-22 09:23:25 51°33.24 2°56.498 110.9 1.2 86 24.8
2010-04-22 09:23:30 51°33.24 2°56.501 111.2 1.6 66 25
2010-04-22 09:23:35 51°33.24 2°56.503 111.4 1.2 88 26.2
2010-04-22 09:23:39 51°33.241 2°56.506 112.3 1.4 74 25.7
2010-04-22 09:23:45 51°33.241 2°56.509 112.9 1.6 64 25.5
2010-04-22 09:23:50 51°33.241 2°56.512 112.3 1.1 96 25.6
2010-04-22 09:23:55 51°33.242 2°56.515 113.6 1.5 67 25.2
2010-04-22 09:24:00 51°33.242 2°56.517 113.4 1 89 25.6
2010-04-22 09:24:05 51°33.243 2°56.52 114.1 1.6 60 25.5
2010-04-22 09:24:10 51°33.243 2°56.523 114.2 0.9 100 26.1
2010-04-22 09:24:15 51°33.243 2°56.526 114.9 1.4 67 26.2
2010-04-22 09:24:20 51°33.244 2°56.528 114.6 1.1 86 26.4
2010-04-22 09:24:25 51°33.244 2°56.531 115.2 1.3 72 25.8
2010-04-22 09:24:30 51°33.244 2°56.533 115.6 1.2 78 25.7
2010-04-22 09:24:35 51°33.244 2°56.535 115.3 1 83 25.9
2010-04-22 09:24:40 51°33.245 2°56.538 115.8 1.2 76 26.5
2010-04-22 09:24:45 51°33.245 2°56.541 116.2 1.1 82 26.6
2010-04-22 09:24:50 51°33.246 2°56.543 116.3 1.1 78 27.2
2010-04-22 09:24:55 51°33.246 2°56.546 116.4 1 82 26.7
2010-04-22 09:25:00 51°33.246 2°56.548 117.3 1.1 74 26.3
2010-04-22 09:25:05 51°33.247 2°56.55 116.6 1 86 26.6
2010-04-22 09:25:10 51°33.247 2°56.553 117.7 1.2 69 26.4